createdAt,value
2022-11-08T00:00:01.722Z,2.80
2022-11-08T00:02:29.019Z,2.60
2022-11-08T00:04:56.363Z,3.63
2022-11-08T00:07:42.073Z,2.93
2022-11-08T00:10:28.150Z,2.87
2022-11-08T00:13:13.974Z,3.77
2022-11-08T00:15:41.125Z,2.97
2022-11-08T00:18:08.455Z,2.80
2022-11-08T00:20:35.703Z,2.57
2022-11-08T00:23:03.922Z,2.73
2022-11-08T00:25:31.117Z,2.77
2022-11-08T00:27:58.320Z,2.90
2022-11-08T00:30:25.511Z,2.90
2022-11-08T00:32:52.723Z,2.50
2022-11-08T00:35:19.903Z,2.50
2022-11-08T00:37:47.085Z,2.60
2022-11-08T00:40:14.284Z,2.70
2022-11-08T00:42:41.489Z,2.50
2022-11-08T00:45:08.813Z,2.87
2022-11-08T00:47:36.007Z,3.00
2022-11-08T00:50:03.196Z,2.67
2022-11-08T00:52:30.399Z,2.80
2022-11-08T00:54:57.566Z,3.27
2022-11-08T00:57:46.792Z,3.37
2022-11-08T01:00:12.357Z,2.70
2022-11-08T01:02:39.656Z,2.70
2022-11-08T01:05:06.993Z,2.60
2022-11-08T01:07:34.583Z,2.77
2022-11-08T01:10:01.748Z,3.80
2022-11-08T01:12:28.958Z,3.00
2022-11-08T01:14:56.238Z,2.70
2022-11-08T01:17:23.527Z,2.40
2022-11-08T01:19:50.692Z,2.93
2022-11-08T01:22:17.869Z,3.23
2022-11-08T01:24:45.071Z,2.60
2022-11-08T01:27:12.300Z,2.90
2022-11-08T01:29:39.473Z,2.80
2022-11-08T01:32:06.683Z,3.00
2022-11-08T01:34:33.924Z,3.20
2022-11-08T01:37:01.149Z,2.70
2022-11-08T01:39:32.884Z,2.90
2022-11-08T01:42:00.102Z,2.90
2022-11-08T01:44:27.407Z,2.90
2022-11-08T01:46:54.609Z,3.03
2022-11-08T01:49:43.885Z,2.90
2022-11-08T01:52:15.441Z,3.37
2022-11-08T01:55:00.406Z,2.87
2022-11-08T01:57:44.142Z,2.70
2022-11-08T02:00:12.795Z,2.50
2022-11-08T02:02:42.658Z,3.13
2022-11-08T02:05:25.597Z,2.77
2022-11-08T02:07:59.065Z,3.07
2022-11-08T02:10:33.548Z,2.80
2022-11-08T02:13:04.764Z,3.33
2022-11-08T02:15:32.712Z,2.83
2022-11-08T02:17:59.971Z,3.20
2022-11-08T02:20:27.360Z,3.10
2022-11-08T02:23:13.099Z,2.80
2022-11-08T02:25:40.303Z,2.90
2022-11-08T02:28:07.613Z,3.47
2022-11-08T02:30:36.360Z,3.00
2022-11-08T02:33:21.910Z,3.17
2022-11-08T02:35:57.024Z,2.70
2022-11-08T02:38:26.032Z,2.83
2022-11-08T02:40:55.122Z,3.43
2022-11-08T02:43:23.330Z,3.17
2022-11-08T02:45:51.135Z,3.20
2022-11-08T02:48:19.772Z,3.33
2022-11-08T02:50:47.570Z,3.10
2022-11-08T02:53:15.631Z,3.73
2022-11-08T02:55:43.031Z,3.50
2022-11-08T02:58:10.614Z,3.73
2022-11-08T03:00:38.002Z,3.47
2022-11-08T03:03:05.565Z,3.10
2022-11-08T03:05:32.896Z,2.97
2022-11-08T03:08:00.175Z,3.00
2022-11-08T03:10:28.148Z,2.90
2022-11-08T03:13:00.174Z,2.80
2022-11-08T03:15:27.459Z,3.10
2022-11-08T03:17:55.856Z,3.00
2022-11-08T03:20:23.957Z,3.10
2022-11-08T03:23:02.914Z,2.63
2022-11-08T03:25:30.211Z,3.20
2022-11-08T03:28:05.407Z,2.90
2022-11-08T03:30:32.895Z,2.80
2022-11-08T03:33:00.482Z,3.10
2022-11-08T03:35:27.695Z,3.00
2022-11-08T03:37:56.057Z,2.90
2022-11-08T03:40:24.105Z,3.20
2022-11-08T03:42:52.613Z,3.30
2022-11-08T03:45:19.838Z,3.10
2022-11-08T03:47:47.678Z,3.43
2022-11-08T03:50:16.458Z,3.43
2022-11-08T03:52:47.788Z,3.20
2022-11-08T03:55:15.291Z,3.03
2022-11-08T03:57:42.857Z,2.90
2022-11-08T04:00:11.583Z,3.40
2022-11-08T04:02:38.907Z,3.73
2022-11-08T04:05:06.977Z,3.00
2022-11-08T04:07:34.630Z,3.13
2022-11-08T04:10:01.809Z,3.10
2022-11-08T04:12:47.558Z,2.90
2022-11-08T04:15:17.773Z,2.80
2022-11-08T04:18:06.288Z,2.80
2022-11-08T04:21:00.011Z,2.80
2022-11-08T04:23:28.168Z,3.00
2022-11-08T04:26:00.644Z,3.23
2022-11-08T04:28:32.791Z,3.23
2022-11-08T04:31:03.039Z,2.90
2022-11-08T04:33:30.258Z,2.90
2022-11-08T04:36:01.837Z,3.00
2022-11-08T04:38:29.960Z,3.30
2022-11-08T04:41:09.458Z,3.50
2022-11-08T04:43:36.763Z,4.13
2022-11-08T04:46:15.408Z,3.77
2022-11-08T04:48:43.274Z,3.40
2022-11-08T04:51:17.814Z,3.10
2022-11-08T04:53:45.004Z,3.20
2022-11-08T04:56:25.048Z,3.43
2022-11-08T04:58:53.843Z,4.40
2022-11-08T05:01:23.329Z,3.00
2022-11-08T05:03:51.979Z,3.60
2022-11-08T05:06:39.026Z,3.60
2022-11-08T05:09:06.219Z,3.70
2022-11-08T05:11:33.492Z,3.20
2022-11-08T05:14:00.717Z,3.50
2022-11-08T05:16:30.289Z,3.10
2022-11-08T05:18:57.487Z,3.10
2022-11-08T05:21:43.421Z,3.00
2022-11-08T05:24:12.340Z,4.13
2022-11-08T05:26:42.133Z,3.13
2022-11-08T05:29:09.619Z,3.40
2022-11-08T05:31:37.002Z,3.40
2022-11-08T05:34:04.299Z,3.20
2022-11-08T05:36:31.500Z,3.30
2022-11-08T05:38:58.670Z,3.67
2022-11-08T05:41:26.378Z,3.43
2022-11-08T05:43:54.986Z,3.20
2022-11-08T05:46:23.230Z,3.13
2022-11-08T05:48:50.938Z,3.30
2022-11-08T05:51:18.921Z,3.20
2022-11-08T05:53:48.569Z,3.67
2022-11-08T05:56:16.297Z,4.43
2022-11-08T05:58:43.475Z,4.43
2022-11-08T06:01:16.408Z,2.90
2022-11-08T06:03:43.663Z,3.30
2022-11-08T06:06:22.669Z,3.30
2022-11-08T06:08:51.463Z,4.03
2022-11-08T06:11:24.095Z,3.10
2022-11-08T06:13:52.247Z,3.47
2022-11-08T06:16:20.847Z,5.23
2022-11-08T06:18:48.109Z,3.63
2022-11-08T06:21:18.316Z,3.00
2022-11-08T06:23:45.674Z,3.70
2022-11-08T06:26:13.212Z,3.40
2022-11-08T06:28:40.367Z,3.30
2022-11-08T06:31:07.562Z,3.10
2022-11-08T06:33:34.923Z,3.30
2022-11-08T06:36:02.342Z,3.50
2022-11-08T06:38:30.171Z,3.63
2022-11-08T06:41:01.204Z,3.17
2022-11-08T06:43:28.537Z,3.03
2022-11-08T06:45:55.907Z,3.10
2022-11-08T06:48:23.061Z,3.00
2022-11-08T06:50:50.255Z,3.23
2022-11-08T06:53:17.704Z,3.73
2022-11-08T06:55:45.158Z,3.40
2022-11-08T06:58:12.405Z,3.80
2022-11-08T07:00:39.755Z,3.27
2022-11-08T07:03:07.059Z,3.00
2022-11-08T07:05:35.172Z,3.30
2022-11-08T07:08:03.978Z,3.93
2022-11-08T07:10:32.633Z,3.20
2022-11-08T07:13:07.862Z,3.20
2022-11-08T07:15:35.879Z,4.40
2022-11-08T07:18:11.158Z,3.30
2022-11-08T07:20:38.777Z,3.00
2022-11-08T07:23:06.100Z,3.33
2022-11-08T07:25:33.297Z,4.03
2022-11-08T07:28:02.517Z,3.00
2022-11-08T07:30:29.912Z,3.27
2022-11-08T07:32:57.514Z,3.37
2022-11-08T07:35:25.987Z,3.30
2022-11-08T07:37:53.213Z,3.93
2022-11-08T07:40:20.517Z,3.43
2022-11-08T07:43:10.607Z,3.30
2022-11-08T07:45:34.887Z,3.50
2022-11-08T07:48:10.954Z,2.93
2022-11-08T07:50:39.374Z,3.40
2022-11-08T07:53:06.583Z,3.27
2022-11-08T07:55:37.365Z,3.73
2022-11-08T07:58:04.942Z,2.80
2022-11-08T08:00:33.216Z,4.67
2022-11-08T08:03:01.357Z,3.40
2022-11-08T08:05:30.863Z,3.00
2022-11-08T08:07:58.780Z,2.60
2022-11-08T08:10:27.448Z,3.30
2022-11-08T08:12:55.800Z,3.00
2022-11-08T08:15:23.069Z,3.17
2022-11-08T08:17:50.296Z,2.60
2022-11-08T08:20:17.546Z,3.00
2022-11-08T08:22:48.875Z,2.80
2022-11-08T08:25:17.012Z,2.80
2022-11-08T08:27:52.019Z,2.60
2022-11-08T08:30:19.599Z,3.87
2022-11-08T08:32:53.455Z,2.83
2022-11-08T08:35:25.096Z,3.23
2022-11-08T08:37:52.259Z,2.70
2022-11-08T08:40:19.427Z,2.90
2022-11-08T08:42:46.619Z,2.80
2022-11-08T08:45:15.261Z,2.50
2022-11-08T08:47:42.629Z,3.47
2022-11-08T08:50:10.075Z,2.90
2022-11-08T08:52:37.286Z,3.00
2022-11-08T08:55:04.518Z,2.70
2022-11-08T08:57:31.966Z,2.50
2022-11-08T09:02:46.366Z,3.13
2022-11-08T09:05:13.898Z,2.90
2022-11-08T09:07:41.373Z,3.53
2022-11-08T09:10:10.571Z,2.80
2022-11-08T09:12:38.461Z,2.30
2022-11-08T09:15:06.250Z,2.40
2022-11-08T09:17:33.479Z,2.60
2022-11-08T09:20:00.778Z,2.50
2022-11-08T09:22:28.100Z,2.30
2022-11-08T09:24:55.298Z,2.43
2022-11-08T09:27:22.458Z,2.20
2022-11-08T09:29:49.276Z,2.30
2022-11-08T09:32:21.695Z,2.20
2022-11-08T09:35:00.594Z,2.57
2022-11-08T09:37:27.837Z,2.30
2022-11-08T09:39:55.071Z,2.20
2022-11-08T09:42:43.323Z,2.20
2022-11-08T09:45:57.548Z,2.33
2022-11-08T09:48:34.935Z,2.40
2022-11-08T09:51:12.729Z,2.10
2022-11-08T09:54:01.016Z,2.27
2022-11-08T09:56:38.568Z,2.83
2022-11-08T09:59:05.737Z,2.00
2022-11-08T10:01:34.798Z,3.10
2022-11-08T10:04:16.816Z,2.37
2022-11-08T10:07:02.507Z,2.10
2022-11-08T10:10:00.426Z,2.10
2022-11-08T10:12:43.700Z,2.20
2022-11-08T10:15:30.618Z,2.10
2022-11-08T10:18:03.405Z,3.07
2022-11-08T10:20:45.240Z,3.00
2022-11-08T10:23:25.696Z,1.93
2022-11-08T10:26:03.035Z,2.10
2022-11-08T10:28:56.418Z,2.00
2022-11-08T10:31:23.856Z,2.00
2022-11-08T10:33:56.372Z,1.90
2022-11-08T10:36:51.320Z,1.90
2022-11-08T10:39:23.674Z,1.90
2022-11-08T10:41:53.170Z,2.00
2022-11-08T10:44:25.735Z,2.10
2022-11-08T10:47:00.497Z,2.17
2022-11-08T10:49:42.590Z,1.90
2022-11-08T10:52:12.133Z,2.00
2022-11-08T10:54:52.056Z,1.70
2022-11-08T10:57:43.676Z,1.77
2022-11-08T11:00:31.541Z,1.50
2022-11-08T11:03:01.280Z,2.20
2022-11-08T11:05:28.556Z,1.70
2022-11-08T11:08:10.162Z,1.70
2022-11-08T11:10:43.387Z,1.70
2022-11-08T11:13:10.572Z,1.67
2022-11-08T11:15:47.401Z,1.90
2022-11-08T11:18:46.865Z,1.80
2022-11-08T11:21:19.672Z,1.70
2022-11-08T11:23:58.567Z,1.80
2022-11-08T11:26:46.039Z,1.70
2022-11-08T11:29:26.494Z,1.87
2022-11-08T11:31:54.578Z,1.80
2022-11-08T11:34:21.845Z,1.63
2022-11-08T11:36:56.783Z,1.80
2022-11-08T11:39:35.547Z,1.70
2022-11-08T11:42:39.659Z,1.73
2022-11-08T11:45:16.167Z,1.77
2022-11-08T11:47:53.357Z,1.60
2022-11-08T11:50:32.260Z,1.60
2022-11-08T11:53:01.946Z,2.17
2022-11-08T11:55:52.025Z,1.60
2022-11-08T11:58:21.856Z,1.40
2022-11-08T12:01:00.452Z,1.70
2022-11-08T12:03:27.594Z,1.33
2022-11-08T12:06:04.570Z,1.80
2022-11-08T12:08:31.730Z,2.17
2022-11-08T12:10:58.974Z,1.60
2022-11-08T12:13:54.951Z,1.60
2022-11-08T12:16:38.015Z,1.67
2022-11-08T12:19:40.261Z,1.53
2022-11-08T12:22:40.938Z,1.80
2022-11-08T12:25:10.483Z,1.70
2022-11-08T12:27:59.423Z,1.73
2022-11-08T12:30:59.231Z,1.77
2022-11-08T12:33:46.896Z,1.40
2022-11-08T12:36:24.624Z,1.77
2022-11-08T12:39:23.488Z,1.60
2022-11-08T12:42:13.228Z,1.70
2022-11-08T12:44:40.452Z,1.67
2022-11-08T12:47:28.307Z,1.47
2022-11-08T12:49:58.118Z,2.07
2022-11-08T12:52:25.266Z,2.67
2022-11-08T12:54:58.478Z,1.70
2022-11-08T12:57:28.411Z,1.60
2022-11-08T13:00:08.996Z,1.63
2022-11-08T13:02:40.896Z,1.60
2022-11-08T13:05:18.790Z,1.73
2022-11-08T13:08:03.614Z,1.77
2022-11-08T13:10:36.550Z,1.60
2022-11-08T13:13:24.600Z,1.63
2022-11-08T13:16:11.638Z,1.40
2022-11-08T13:18:51.905Z,1.40
2022-11-08T13:21:34.202Z,1.53
2022-11-08T13:24:30.837Z,1.60
2022-11-08T13:27:24.674Z,1.40
2022-11-08T13:29:52.452Z,1.40
2022-11-08T13:32:37.417Z,2.03
2022-11-08T13:35:04.674Z,1.20
2022-11-08T13:37:31.809Z,1.37
2022-11-08T13:40:13.654Z,1.30
2022-11-08T13:42:58.040Z,1.50
2022-11-08T13:45:25.539Z,1.40
2022-11-08T13:47:57.924Z,1.50
2022-11-08T13:50:37.730Z,1.50
2022-11-08T13:53:43.029Z,1.57
2022-11-08T13:56:10.203Z,1.30
2022-11-08T13:58:45.627Z,1.70
2022-11-08T14:01:18.413Z,1.57
2022-11-08T14:03:48.194Z,1.47
2022-11-08T14:07:05.821Z,1.20
2022-11-08T14:09:50.821Z,1.60
2022-11-08T14:12:26.467Z,1.60
2022-11-08T14:15:14.428Z,2.27
2022-11-08T14:18:01.008Z,2.00
2022-11-08T14:20:37.240Z,1.30
2022-11-08T14:23:33.528Z,1.60
2022-11-08T14:26:00.695Z,1.50
2022-11-08T14:28:36.559Z,1.40
2022-11-08T14:31:06.300Z,1.50
2022-11-08T14:33:40.852Z,1.40
2022-11-08T14:36:15.638Z,1.40
2022-11-08T14:39:16.335Z,1.40
2022-11-08T14:41:55.273Z,2.70
2022-11-08T14:44:22.947Z,2.03
2022-11-08T14:46:50.224Z,3.03
2022-11-08T14:49:30.402Z,1.40
2022-11-08T14:52:14.906Z,1.40
2022-11-08T14:54:44.776Z,1.67
2022-11-08T14:57:35.716Z,1.70
2022-11-08T15:00:14.525Z,2.10
2022-11-08T15:02:44.480Z,1.60
2022-11-08T15:05:35.567Z,1.50
2022-11-08T15:08:40.820Z,1.90
2022-11-08T15:11:12.338Z,2.27
2022-11-08T15:13:42.758Z,2.43
2022-11-08T15:16:10.315Z,1.50
2022-11-08T15:18:39.662Z,2.30
2022-11-08T15:21:16.789Z,3.50
2022-11-08T15:23:46.601Z,1.70
2022-11-08T15:26:25.810Z,1.90
2022-11-08T15:29:02.372Z,1.70
2022-11-08T15:31:52.258Z,2.30
2022-11-08T15:34:22.528Z,1.60
2022-11-08T15:36:50.768Z,1.80
2022-11-08T15:39:40.384Z,2.20
2022-11-08T15:42:16.525Z,1.60
2022-11-08T15:45:05.261Z,1.90
2022-11-08T15:47:46.746Z,1.87
2022-11-08T15:50:15.631Z,2.43
2022-11-08T15:52:43.396Z,2.57
2022-11-08T15:55:14.985Z,1.70
2022-11-08T15:57:43.657Z,2.10
2022-11-08T16:00:18.767Z,2.43
2022-11-08T16:02:46.130Z,1.83
2022-11-08T16:05:18.560Z,2.00
2022-11-08T16:07:46.097Z,1.60
2022-11-08T16:10:14.226Z,2.10
2022-11-08T16:12:43.914Z,1.77
2022-11-08T16:15:16.831Z,1.80
2022-11-08T16:17:44.011Z,1.70
2022-11-08T16:20:30.755Z,2.03
2022-11-08T16:22:59.384Z,2.20
2022-11-08T16:25:29.481Z,2.57
2022-11-08T16:27:59.332Z,2.27
2022-11-08T16:30:26.982Z,1.80
2022-11-08T16:32:54.355Z,1.70
2022-11-08T16:35:21.832Z,4.60
2022-11-08T16:37:50.597Z,2.07
2022-11-08T16:40:18.050Z,1.73
2022-11-08T16:42:46.669Z,2.10
2022-11-08T16:45:13.924Z,2.13
2022-11-08T16:47:46.074Z,2.00
2022-11-08T16:50:25.950Z,2.00
2022-11-08T16:52:53.454Z,1.80
2022-11-08T16:55:21.725Z,1.90
2022-11-08T16:57:49.216Z,2.07
2022-11-08T17:00:20.248Z,1.80
2022-11-08T17:02:52.621Z,1.90
2022-11-08T17:05:24.282Z,2.13
2022-11-08T17:07:52.310Z,1.80
2022-11-08T17:10:19.521Z,2.47
2022-11-08T17:12:46.743Z,3.67
2022-11-08T17:15:15.874Z,1.60
2022-11-08T17:17:43.509Z,2.57
2022-11-08T17:20:13.449Z,2.00
2022-11-08T17:22:41.884Z,2.77
2022-11-08T17:25:11.715Z,1.97
2022-11-08T17:27:39.333Z,2.40
2022-11-08T17:30:07.418Z,1.90
2022-11-08T17:32:35.819Z,1.80
2022-11-08T17:35:03.422Z,3.80
2022-11-08T17:37:30.602Z,2.40
2022-11-08T17:39:57.851Z,1.90
2022-11-08T17:42:25.252Z,1.90
2022-11-08T17:44:54.485Z,1.87
2022-11-08T17:47:21.785Z,1.90
2022-11-08T17:49:49.250Z,3.50
2022-11-08T17:52:16.713Z,2.00
2022-11-08T17:54:43.565Z,2.00
2022-11-08T17:57:10.847Z,2.07
2022-11-08T17:59:38.162Z,2.20
2022-11-08T18:02:05.431Z,2.10
2022-11-08T18:04:32.678Z,4.07
2022-11-08T18:06:59.924Z,2.40
2022-11-08T18:09:27.336Z,2.27
2022-11-08T18:11:54.646Z,2.07
2022-11-08T18:14:28.032Z,2.30
2022-11-08T18:16:56.453Z,2.20
2022-11-08T18:19:23.967Z,3.17
2022-11-08T18:21:51.212Z,2.00
2022-11-08T18:24:18.542Z,2.90
2022-11-08T18:26:45.746Z,2.13
2022-11-08T18:29:12.925Z,2.63
2022-11-08T18:31:40.197Z,2.43
2022-11-08T18:34:07.455Z,2.17
2022-11-08T18:36:34.695Z,2.00
2022-11-08T18:39:02.677Z,2.20
2022-11-08T18:41:32.216Z,2.83
2022-11-08T18:44:00.348Z,1.90
2022-11-08T18:46:32.712Z,2.10
2022-11-08T18:48:59.978Z,2.33
2022-11-08T18:51:27.227Z,1.90
2022-11-08T18:53:54.511Z,2.63
2022-11-08T18:56:22.163Z,3.13
2022-11-08T18:58:49.715Z,2.20
2022-11-08T19:01:17.270Z,2.03
2022-11-08T19:03:44.651Z,2.07
2022-11-08T19:06:11.846Z,2.10
2022-11-08T19:08:39.092Z,2.20
2022-11-08T19:11:09.149Z,2.27
2022-11-08T19:13:39.189Z,2.00
2022-11-08T19:16:09.288Z,2.17
2022-11-08T19:18:37.671Z,2.10
2022-11-08T19:21:08.211Z,2.27
2022-11-08T19:23:36.382Z,2.30
2022-11-08T19:26:19.075Z,2.00
2022-11-08T19:28:46.562Z,2.10
2022-11-08T19:31:19.234Z,2.00
2022-11-08T19:33:47.448Z,1.90
2022-11-08T19:36:16.619Z,2.43
2022-11-08T19:38:44.081Z,4.60
2022-11-08T19:41:19.472Z,2.10
2022-11-08T19:43:47.196Z,2.53
2022-11-08T19:46:23.656Z,2.10
2022-11-08T19:48:52.342Z,2.10
2022-11-08T19:51:22.235Z,2.20
2022-11-08T19:53:49.472Z,2.20
2022-11-08T19:56:23.537Z,2.23
2022-11-08T19:58:53.385Z,2.10
2022-11-08T20:01:23.006Z,2.10
2022-11-08T20:03:50.289Z,2.00
2022-11-08T20:06:20.304Z,2.30
2022-11-08T20:08:48.931Z,2.17
2022-11-08T20:11:29.005Z,2.70
2022-11-08T20:13:56.424Z,2.10
2022-11-08T20:16:28.580Z,1.80
2022-11-08T20:19:01.827Z,2.10
2022-11-08T20:21:29.098Z,2.00
2022-11-08T20:23:56.276Z,2.00
2022-11-08T20:26:27.009Z,2.00
2022-11-08T20:28:56.714Z,2.33
2022-11-08T20:31:25.161Z,1.90
2022-11-08T20:33:53.794Z,2.50
2022-11-08T20:36:23.343Z,3.13
2022-11-08T20:38:54.162Z,2.30
2022-11-08T20:41:21.381Z,2.23
2022-11-08T20:43:48.563Z,2.20
2022-11-08T20:46:19.984Z,2.30
2022-11-08T20:48:51.810Z,2.40
2022-11-08T20:51:20.255Z,2.40
2022-11-08T20:53:47.967Z,2.20
2022-11-08T20:56:20.113Z,2.87
2022-11-08T20:58:49.198Z,2.33
2022-11-08T21:01:24.362Z,2.17
2022-11-08T21:03:52.543Z,2.20
2022-11-08T21:06:24.851Z,3.03
2022-11-08T21:09:03.200Z,2.20
2022-11-08T21:11:34.572Z,3.17
2022-11-08T21:14:02.317Z,2.30
2022-11-08T21:16:33.123Z,2.30
2022-11-08T21:19:05.809Z,2.10
2022-11-08T21:21:33.193Z,2.63
2022-11-08T21:24:00.493Z,2.20
2022-11-08T21:26:27.822Z,2.20
2022-11-08T21:28:55.021Z,2.97
2022-11-08T21:31:22.851Z,2.20
2022-11-08T21:33:50.123Z,2.60
2022-11-08T21:36:18.413Z,2.63
2022-11-08T21:38:45.768Z,3.03
2022-11-08T21:41:13.461Z,2.93
2022-11-08T21:43:44.551Z,2.40
2022-11-08T21:46:19.598Z,2.30
2022-11-08T21:48:47.463Z,2.43
2022-11-08T21:51:14.876Z,3.23
2022-11-08T21:53:49.656Z,2.30
2022-11-08T21:56:20.030Z,2.20
2022-11-08T21:58:47.239Z,2.13
2022-11-08T22:01:14.602Z,3.10
2022-11-08T22:03:41.857Z,2.93
2022-11-08T22:06:09.190Z,2.30
2022-11-08T22:08:36.350Z,2.30
2022-11-08T22:11:03.757Z,2.30
2022-11-08T22:13:30.936Z,2.43
2022-11-08T22:15:57.744Z,2.17
2022-11-08T22:18:37.049Z,2.30
2022-11-08T22:21:30.483Z,2.20
2022-11-08T22:23:57.262Z,2.27
2022-11-08T22:26:24.481Z,2.40
2022-11-08T22:28:51.681Z,2.97
2022-11-08T22:31:18.873Z,2.20
2022-11-08T22:33:46.167Z,2.20
2022-11-08T22:36:13.441Z,4.17
2022-11-08T22:38:40.697Z,3.83
2022-11-08T22:41:07.999Z,3.67
2022-11-08T22:43:35.886Z,2.47
2022-11-08T22:46:03.138Z,2.10
2022-11-08T22:48:30.378Z,2.37
2022-11-08T22:50:57.650Z,2.70
2022-11-08T22:53:24.901Z,4.63
2022-11-08T22:55:52.251Z,2.20
2022-11-08T22:58:19.462Z,2.50
2022-11-08T23:00:46.852Z,2.40
2022-11-08T23:03:14.164Z,3.57
2022-11-08T23:05:42.603Z,2.50
2022-11-08T23:08:09.844Z,3.70
2022-11-08T23:10:56.990Z,2.60
2022-11-08T23:13:42.683Z,2.80
2022-11-08T23:16:29.205Z,2.43
2022-11-08T23:19:14.737Z,2.93
2022-11-08T23:22:00.611Z,2.40
2022-11-08T23:24:28.130Z,2.40
2022-11-08T23:27:14.388Z,3.07
2022-11-08T23:30:00.021Z,2.30
2022-11-08T23:32:27.276Z,2.37
2022-11-08T23:34:54.489Z,2.30
2022-11-08T23:37:21.771Z,2.40
2022-11-08T23:40:07.450Z,2.40
2022-11-08T23:42:53.467Z,4.10
2022-11-08T23:45:21.792Z,2.37
2022-11-08T23:47:49.007Z,2.47
2022-11-08T23:50:16.197Z,2.47
2022-11-08T23:52:43.504Z,2.40
2022-11-08T23:55:10.698Z,2.70
2022-11-08T23:57:37.903Z,3.33
